sensor_id;sensor_type;location;lat;lon;timestamp;P1;durP1;ratioP1;P2;durP2;ratioP2
26820;SDS011;37186;51.394;5.454;2022-11-28T00:00:10;3.93;;;3.83;;
26820;SDS011;37186;51.394;5.454;2022-11-28T00:03:11;4.13;;;4.03;;
26820;SDS011;37186;51.394;5.454;2022-11-28T00:06:11;4.00;;;3.90;;
26820;SDS011;37186;51.394;5.454;2022-11-28T00:09:13;3.90;;;3.80;;
26820;SDS011;37186;51.394;5.454;2022-11-28T00:12:14;4.03;;;3.93;;
26820;SDS011;37186;51.394;5.454;2022-11-28T00:15:14;3.83;;;3.73;;
26820;SDS011;37186;51.394;5.454;2022-11-28T00:18:15;3.70;;;3.60;;
26820;SDS011;37186;51.394;5.454;2022-11-28T00:21:16;3.80;;;3.70;;
26820;SDS011;37186;51.394;5.454;2022-11-28T00:24:17;3.77;;;3.67;;
26820;SDS011;37186;51.394;5.454;2022-11-28T00:27:18;3.90;;;3.80;;
26820;SDS011;37186;51.394;5.454;2022-11-28T00:30:18;3.63;;;3.53;;
26820;SDS011;37186;51.394;5.454;2022-11-28T00:33:19;3.90;;;3.80;;
26820;SDS011;37186;51.394;5.454;2022-11-28T00:36:20;4.00;;;3.90;;
26820;SDS011;37186;51.394;5.454;2022-11-28T00:39:20;3.97;;;3.87;;
26820;SDS011;37186;51.394;5.454;2022-11-28T00:42:21;3.70;;;3.60;;
26820;SDS011;37186;51.394;5.454;2022-11-28T00:45:22;3.90;;;3.80;;
26820;SDS011;37186;51.394;5.454;2022-11-28T00:48:22;3.67;;;3.57;;
26820;SDS011;37186;51.394;5.454;2022-11-28T00:51:25;3.90;;;3.80;;
26820;SDS011;37186;51.394;5.454;2022-11-28T00:54:27;3.80;;;3.70;;
26820;SDS011;37186;51.394;5.454;2022-11-28T00:57:27;3.80;;;3.70;;
26820;SDS011;37186;51.394;5.454;2022-11-28T01:00:28;4.20;;;4.10;;
26820;SDS011;37186;51.394;5.454;2022-11-28T01:03:29;4.13;;;4.03;;
26820;SDS011;37186;51.394;5.454;2022-11-28T01:06:30;4.13;;;4.03;;
26820;SDS011;37186;51.394;5.454;2022-11-28T01:09:32;4.07;;;3.97;;
26820;SDS011;37186;51.394;5.454;2022-11-28T01:12:33;4.27;;;4.17;;
26820;SDS011;37186;51.394;5.454;2022-11-28T01:15:34;3.97;;;3.87;;
26820;SDS011;37186;51.394;5.454;2022-11-28T01:18:35;4.07;;;3.97;;
26820;SDS011;37186;51.394;5.454;2022-11-28T01:21:36;4.20;;;4.10;;
26820;SDS011;37186;51.394;5.454;2022-11-28T01:24:37;4.13;;;4.03;;
26820;SDS011;37186;51.394;5.454;2022-11-28T01:27:37;4.03;;;3.93;;
26820;SDS011;37186;51.394;5.454;2022-11-28T01:30:38;4.00;;;3.90;;
26820;SDS011;37186;51.394;5.454;2022-11-28T01:33:38;4.10;;;4.00;;
26820;SDS011;37186;51.394;5.454;2022-11-28T01:36:39;4.40;;;4.30;;
26820;SDS011;37186;51.394;5.454;2022-11-28T01:39:39;4.17;;;4.07;;
26820;SDS011;37186;51.394;5.454;2022-11-28T01:42:40;4.20;;;4.10;;
26820;SDS011;37186;51.394;5.454;2022-11-28T01:45:40;4.30;;;4.20;;
26820;SDS011;37186;51.394;5.454;2022-11-28T01:48:41;4.10;;;4.00;;
26820;SDS011;37186;51.394;5.454;2022-11-28T01:51:52;4.20;;;4.10;;
26820;SDS011;37186;51.394;5.454;2022-11-28T01:54:56;4.30;;;4.20;;
26820;SDS011;37186;51.394;5.454;2022-11-28T01:58:00;4.10;;;4.00;;
26820;SDS011;37186;51.394;5.454;2022-11-28T02:01:00;4.10;;;4.00;;
26820;SDS011;37186;51.394;5.454;2022-11-28T02:04:02;4.20;;;4.10;;
26820;SDS011;37186;51.394;5.454;2022-11-28T02:07:03;4.27;;;4.17;;
26820;SDS011;37186;51.394;5.454;2022-11-28T02:10:05;4.20;;;4.10;;
26820;SDS011;37186;51.394;5.454;2022-11-28T02:13:54;4.30;;;4.20;;
26820;SDS011;37186;51.394;5.454;2022-11-28T02:16:44;4.10;;;4.00;;
26820;SDS011;37186;51.394;5.454;2022-11-28T02:36:09;4.50;;;4.40;;
26820;SDS011;37186;51.394;5.454;2022-11-28T02:39:23;4.20;;;4.10;;
26820;SDS011;37186;51.394;5.454;2022-11-28T02:42:43;4.23;;;4.13;;
26820;SDS011;37186;51.394;5.454;2022-11-28T02:46:09;4.60;;;4.50;;
26820;SDS011;37186;51.394;5.454;2022-11-28T02:49:18;4.30;;;4.20;;
26820;SDS011;37186;51.394;5.454;2022-11-28T02:52:30;4.33;;;4.23;;
26820;SDS011;37186;51.394;5.454;2022-11-28T02:55:38;4.30;;;4.20;;
26820;SDS011;37186;51.394;5.454;2022-11-28T02:58:40;4.20;;;4.10;;
26820;SDS011;37186;51.394;5.454;2022-11-28T03:01:40;4.30;;;4.20;;
26820;SDS011;37186;51.394;5.454;2022-11-28T03:04:49;4.33;;;4.23;;
26820;SDS011;37186;51.394;5.454;2022-11-28T03:11:19;4.17;;;4.07;;
26820;SDS011;37186;51.394;5.454;2022-11-28T03:14:55;4.03;;;3.93;;
26820;SDS011;37186;51.394;5.454;2022-11-28T03:18:12;4.20;;;4.10;;
26820;SDS011;37186;51.394;5.454;2022-11-28T03:21:22;4.20;;;4.10;;
26820;SDS011;37186;51.394;5.454;2022-11-28T03:24:47;4.37;;;4.27;;
26820;SDS011;37186;51.394;5.454;2022-11-28T03:30:59;4.27;;;4.17;;
26820;SDS011;37186;51.394;5.454;2022-11-28T03:34:13;4.40;;;4.30;;
26820;SDS011;37186;51.394;5.454;2022-11-28T03:37:20;4.43;;;4.33;;
26820;SDS011;37186;51.394;5.454;2022-11-28T03:40:27;4.63;;;4.53;;
26820;SDS011;37186;51.394;5.454;2022-11-28T03:43:33;4.30;;;4.20;;
26820;SDS011;37186;51.394;5.454;2022-11-28T03:46:43;3.90;;;3.80;;
26820;SDS011;37186;51.394;5.454;2022-11-28T03:49:49;4.30;;;4.20;;
26820;SDS011;37186;51.394;5.454;2022-11-28T03:52:53;4.43;;;4.33;;
26820;SDS011;37186;51.394;5.454;2022-11-28T03:56:01;4.27;;;4.17;;
26820;SDS011;37186;51.394;5.454;2022-11-28T03:59:10;4.40;;;4.30;;
26820;SDS011;37186;51.394;5.454;2022-11-28T04:09:01;4.47;;;4.37;;
26820;SDS011;37186;51.394;5.454;2022-11-28T04:12:08;4.23;;;4.13;;
26820;SDS011;37186;51.394;5.454;2022-11-28T04:15:21;4.30;;;4.20;;
26820;SDS011;37186;51.394;5.454;2022-11-28T04:21:52;4.20;;;4.10;;
26820;SDS011;37186;51.394;5.454;2022-11-28T04:25:15;4.20;;;4.10;;
26820;SDS011;37186;51.394;5.454;2022-11-28T04:28:20;4.37;;;4.27;;
26820;SDS011;37186;51.394;5.454;2022-11-28T04:31:24;4.23;;;4.13;;
26820;SDS011;37186;51.394;5.454;2022-11-28T04:34:25;4.33;;;4.23;;
26820;SDS011;37186;51.394;5.454;2022-11-28T04:37:27;4.40;;;4.30;;
26820;SDS011;37186;51.394;5.454;2022-11-28T04:40:32;4.40;;;4.30;;
26820;SDS011;37186;51.394;5.454;2022-11-28T04:43:38;4.33;;;4.23;;
26820;SDS011;37186;51.394;5.454;2022-11-28T04:46:43;4.47;;;4.37;;
26820;SDS011;37186;51.394;5.454;2022-11-28T04:49:47;4.33;;;4.23;;
26820;SDS011;37186;51.394;5.454;2022-11-28T04:52:50;4.30;;;4.20;;
26820;SDS011;37186;51.394;5.454;2022-11-28T04:55:59;4.27;;;4.17;;
26820;SDS011;37186;51.394;5.454;2022-11-28T04:59:04;4.20;;;4.10;;
26820;SDS011;37186;51.394;5.454;2022-11-28T05:02:06;4.47;;;4.37;;
26820;SDS011;37186;51.394;5.454;2022-11-28T05:05:09;4.50;;;4.40;;
26820;SDS011;37186;51.394;5.454;2022-11-28T05:08:21;4.27;;;4.17;;
26820;SDS011;37186;51.394;5.454;2022-11-28T05:11:22;4.33;;;4.23;;
26820;SDS011;37186;51.394;5.454;2022-11-28T05:14:22;4.23;;;4.13;;
26820;SDS011;37186;51.394;5.454;2022-11-28T05:17:23;4.17;;;4.07;;
26820;SDS011;37186;51.394;5.454;2022-11-28T05:20:23;4.33;;;4.23;;
26820;SDS011;37186;51.394;5.454;2022-11-28T05:23:24;4.37;;;4.27;;
26820;SDS011;37186;51.394;5.454;2022-11-28T05:26:25;4.10;;;4.00;;
26820;SDS011;37186;51.394;5.454;2022-11-28T05:29:25;4.40;;;4.30;;
26820;SDS011;37186;51.394;5.454;2022-11-28T05:32:29;4.27;;;4.17;;
26820;SDS011;37186;51.394;5.454;2022-11-28T05:35:30;4.07;;;3.97;;
26820;SDS011;37186;51.394;5.454;2022-11-28T05:38:31;4.27;;;4.17;;
26820;SDS011;37186;51.394;5.454;2022-11-28T05:41:32;4.23;;;4.13;;
26820;SDS011;37186;51.394;5.454;2022-11-28T05:44:33;4.27;;;4.17;;
26820;SDS011;37186;51.394;5.454;2022-11-28T05:47:33;4.23;;;4.13;;
26820;SDS011;37186;51.394;5.454;2022-11-28T05:50:34;4.47;;;4.37;;
26820;SDS011;37186;51.394;5.454;2022-11-28T05:53:37;4.13;;;4.03;;
26820;SDS011;37186;51.394;5.454;2022-11-28T05:56:37;4.27;;;4.17;;
26820;SDS011;37186;51.394;5.454;2022-11-28T05:59:38;4.33;;;4.23;;
26820;SDS011;37186;51.394;5.454;2022-11-28T06:02:38;4.33;;;4.23;;
26820;SDS011;37186;51.394;5.454;2022-11-28T06:05:40;4.27;;;4.17;;
26820;SDS011;37186;51.394;5.454;2022-11-28T06:08:42;4.43;;;4.33;;
26820;SDS011;37186;51.394;5.454;2022-11-28T06:11:42;4.17;;;4.07;;
26820;SDS011;37186;51.394;5.454;2022-11-28T06:14:43;4.43;;;4.33;;
26820;SDS011;37186;51.394;5.454;2022-11-28T06:17:43;4.27;;;4.17;;
26820;SDS011;37186;51.394;5.454;2022-11-28T06:20:44;4.57;;;4.47;;
26820;SDS011;37186;51.394;5.454;2022-11-28T06:23:45;4.27;;;4.17;;
26820;SDS011;37186;51.394;5.454;2022-11-28T06:26:45;4.50;;;4.40;;
26820;SDS011;37186;51.394;5.454;2022-11-28T06:29:46;4.37;;;4.27;;
26820;SDS011;37186;51.394;5.454;2022-11-28T06:32:46;4.33;;;4.23;;
26820;SDS011;37186;51.394;5.454;2022-11-28T06:35:47;4.33;;;4.23;;
26820;SDS011;37186;51.394;5.454;2022-11-28T06:38:47;4.30;;;4.20;;
26820;SDS011;37186;51.394;5.454;2022-11-28T06:41:48;4.43;;;4.33;;
26820;SDS011;37186;51.394;5.454;2022-11-28T06:44:49;4.47;;;4.37;;
26820;SDS011;37186;51.394;5.454;2022-11-28T06:47:49;4.40;;;4.30;;
26820;SDS011;37186;51.394;5.454;2022-11-28T06:50:50;4.33;;;4.23;;
26820;SDS011;37186;51.394;5.454;2022-11-28T06:53:50;4.33;;;4.23;;
26820;SDS011;37186;51.394;5.454;2022-11-28T06:56:51;4.37;;;4.27;;
26820;SDS011;37186;51.394;5.454;2022-11-28T06:59:51;4.57;;;4.47;;
26820;SDS011;37186;51.394;5.454;2022-11-28T07:02:52;4.37;;;4.27;;
26820;SDS011;37186;51.394;5.454;2022-11-28T07:05:52;4.50;;;4.40;;
26820;SDS011;37186;51.394;5.454;2022-11-28T07:08:56;4.57;;;4.47;;
26820;SDS011;37186;51.394;5.454;2022-11-28T07:11:57;4.63;;;4.53;;
26820;SDS011;37186;51.394;5.454;2022-11-28T07:14:58;4.43;;;4.33;;
26820;SDS011;37186;51.394;5.454;2022-11-28T07:17:59;4.50;;;4.40;;
26820;SDS011;37186;51.394;5.454;2022-11-28T07:20:59;4.60;;;4.50;;
26820;SDS011;37186;51.394;5.454;2022-11-28T07:24:00;4.43;;;4.33;;
26820;SDS011;37186;51.394;5.454;2022-11-28T07:27:01;4.57;;;4.47;;
26820;SDS011;37186;51.394;5.454;2022-11-28T07:30:02;4.53;;;4.43;;
26820;SDS011;37186;51.394;5.454;2022-11-28T07:33:03;4.63;;;4.53;;
26820;SDS011;37186;51.394;5.454;2022-11-28T07:36:05;4.70;;;4.60;;
26820;SDS011;37186;51.394;5.454;2022-11-28T07:39:09;4.67;;;4.57;;
26820;SDS011;37186;51.394;5.454;2022-11-28T07:42:12;4.60;;;4.50;;
26820;SDS011;37186;51.394;5.454;2022-11-28T07:45:13;4.40;;;4.30;;
26820;SDS011;37186;51.394;5.454;2022-11-28T07:48:13;4.47;;;4.37;;
26820;SDS011;37186;51.394;5.454;2022-11-28T07:51:15;4.50;;;4.40;;
26820;SDS011;37186;51.394;5.454;2022-11-28T07:54:18;4.50;;;4.40;;
26820;SDS011;37186;51.394;5.454;2022-11-28T07:57:18;4.70;;;4.60;;
26820;SDS011;37186;51.394;5.454;2022-11-28T08:00:19;4.63;;;4.53;;
26820;SDS011;37186;51.394;5.454;2022-11-28T08:03:20;4.83;;;4.73;;
26820;SDS011;37186;51.394;5.454;2022-11-28T08:06:22;4.53;;;4.43;;
26820;SDS011;37186;51.394;5.454;2022-11-28T08:09:24;4.70;;;4.60;;
26820;SDS011;37186;51.394;5.454;2022-11-28T08:12:24;4.43;;;4.33;;
26820;SDS011;37186;51.394;5.454;2022-11-28T08:15:25;4.43;;;4.33;;
26820;SDS011;37186;51.394;5.454;2022-11-28T08:18:30;4.90;;;4.80;;
26820;SDS011;37186;51.394;5.454;2022-11-28T08:21:31;5.10;;;5.00;;
26820;SDS011;37186;51.394;5.454;2022-11-28T08:24:32;4.80;;;4.70;;
26820;SDS011;37186;51.394;5.454;2022-11-28T08:27:32;4.63;;;4.53;;
26820;SDS011;37186;51.394;5.454;2022-11-28T08:30:33;4.80;;;4.70;;
26820;SDS011;37186;51.394;5.454;2022-11-28T08:33:34;4.90;;;4.80;;
26820;SDS011;37186;51.394;5.454;2022-11-28T08:36:35;4.80;;;4.70;;
26820;SDS011;37186;51.394;5.454;2022-11-28T08:39:35;4.53;;;4.43;;
26820;SDS011;37186;51.394;5.454;2022-11-28T08:42:36;4.70;;;4.60;;
26820;SDS011;37186;51.394;5.454;2022-11-28T08:45:37;4.50;;;4.40;;
26820;SDS011;37186;51.394;5.454;2022-11-28T08:48:38;4.80;;;4.70;;
26820;SDS011;37186;51.394;5.454;2022-11-28T08:51:39;4.70;;;4.60;;
26820;SDS011;37186;51.394;5.454;2022-11-28T08:54:40;4.70;;;4.60;;
26820;SDS011;37186;51.394;5.454;2022-11-28T08:57:40;4.70;;;4.60;;
26820;SDS011;37186;51.394;5.454;2022-11-28T09:00:41;4.50;;;4.40;;
26820;SDS011;37186;51.394;5.454;2022-11-28T09:03:42;4.50;;;4.40;;
26820;SDS011;37186;51.394;5.454;2022-11-28T09:06:43;4.60;;;4.50;;
26820;SDS011;37186;51.394;5.454;2022-11-28T09:09:43;4.53;;;4.43;;
26820;SDS011;37186;51.394;5.454;2022-11-28T09:12:44;4.50;;;4.40;;
26820;SDS011;37186;51.394;5.454;2022-11-28T09:15:45;4.57;;;4.47;;
26820;SDS011;37186;51.394;5.454;2022-11-28T09:18:46;4.60;;;4.50;;
26820;SDS011;37186;51.394;5.454;2022-11-28T09:21:46;4.63;;;4.53;;
26820;SDS011;37186;51.394;5.454;2022-11-28T09:24:47;4.67;;;4.57;;
26820;SDS011;37186;51.394;5.454;2022-11-28T09:27:47;4.63;;;4.53;;
26820;SDS011;37186;51.394;5.454;2022-11-28T09:30:48;4.90;;;4.80;;
26820;SDS011;37186;51.394;5.454;2022-11-28T09:33:49;4.60;;;4.50;;
26820;SDS011;37186;51.394;5.454;2022-11-28T09:36:50;4.63;;;4.53;;
26820;SDS011;37186;51.394;5.454;2022-11-28T09:39:51;4.73;;;4.63;;
26820;SDS011;37186;51.394;5.454;2022-11-28T09:42:51;4.67;;;4.57;;
26820;SDS011;37186;51.394;5.454;2022-11-28T09:45:52;4.60;;;4.50;;
26820;SDS011;37186;51.394;5.454;2022-11-28T09:48:56;4.73;;;4.63;;
26820;SDS011;37186;51.394;5.454;2022-11-28T09:58:49;4.50;;;4.40;;
26820;SDS011;37186;51.394;5.454;2022-11-28T10:08:12;4.67;;;4.57;;
26820;SDS011;37186;51.394;5.454;2022-11-28T10:11:28;4.50;;;4.40;;
26820;SDS011;37186;51.394;5.454;2022-11-28T10:21:42;4.57;;;4.47;;
26820;SDS011;37186;51.394;5.454;2022-11-28T10:24:47;4.77;;;4.67;;
26820;SDS011;37186;51.394;5.454;2022-11-28T10:27:52;4.70;;;4.60;;
26820;SDS011;37186;51.394;5.454;2022-11-28T10:31:09;4.50;;;4.40;;
26820;SDS011;37186;51.394;5.454;2022-11-28T10:34:15;4.40;;;4.30;;
26820;SDS011;37186;51.394;5.454;2022-11-28T10:37:28;4.20;;;4.10;;
26820;SDS011;37186;51.394;5.454;2022-11-28T10:40:50;4.37;;;4.27;;
26820;SDS011;37186;51.394;5.454;2022-11-28T10:50:38;4.20;;;4.10;;
26820;SDS011;37186;51.394;5.454;2022-11-28T11:00:27;4.40;;;4.30;;
26820;SDS011;37186;51.394;5.454;2022-11-28T11:03:29;4.63;;;4.53;;
26820;SDS011;37186;51.394;5.454;2022-11-28T11:06:31;4.13;;;4.03;;
26820;SDS011;37186;51.394;5.454;2022-11-28T11:09:32;4.40;;;4.30;;
26820;SDS011;37186;51.394;5.454;2022-11-28T11:12:32;4.30;;;4.20;;
26820;SDS011;37186;51.394;5.454;2022-11-28T11:15:33;4.10;;;4.00;;
26820;SDS011;37186;51.394;5.454;2022-11-28T11:21:57;4.40;;;4.30;;
26820;SDS011;37186;51.394;5.454;2022-11-28T11:25:14;4.30;;;4.20;;
26820;SDS011;37186;51.394;5.454;2022-11-28T11:31:51;4.33;;;4.23;;
26820;SDS011;37186;51.394;5.454;2022-11-28T11:34:52;4.13;;;4.03;;
26820;SDS011;37186;51.394;5.454;2022-11-28T11:41:27;4.33;;;4.23;;
26820;SDS011;37186;51.394;5.454;2022-11-28T11:44:30;4.33;;;4.23;;
26820;SDS011;37186;51.394;5.454;2022-11-28T11:47:38;4.30;;;4.20;;
26820;SDS011;37186;51.394;5.454;2022-11-28T11:50:42;4.10;;;4.00;;
26820;SDS011;37186;51.394;5.454;2022-11-28T11:54:03;4.27;;;4.17;;
26820;SDS011;37186;51.394;5.454;2022-11-28T11:57:19;4.10;;;4.00;;
26820;SDS011;37186;51.394;5.454;2022-11-28T12:00:21;4.30;;;4.20;;
26820;SDS011;37186;51.394;5.454;2022-11-28T12:03:32;4.27;;;4.17;;
26820;SDS011;37186;51.394;5.454;2022-11-28T12:06:41;4.03;;;3.93;;
26820;SDS011;37186;51.394;5.454;2022-11-28T12:09:51;4.20;;;4.10;;
26820;SDS011;37186;51.394;5.454;2022-11-28T12:12:55;4.07;;;3.97;;
26820;SDS011;37186;51.394;5.454;2022-11-28T12:36:26;3.93;;;3.83;;
26820;SDS011;37186;51.394;5.454;2022-11-28T12:39:35;4.07;;;3.97;;
26820;SDS011;37186;51.394;5.454;2022-11-28T12:43:03;4.07;;;3.97;;
26820;SDS011;37186;51.394;5.454;2022-11-28T12:46:32;4.10;;;4.00;;
26820;SDS011;37186;51.394;5.454;2022-11-28T12:49:41;4.10;;;4.00;;
26820;SDS011;37186;51.394;5.454;2022-11-28T12:53:24;4.03;;;3.93;;
26820;SDS011;37186;51.394;5.454;2022-11-28T12:56:43;3.90;;;3.80;;
26820;SDS011;37186;51.394;5.454;2022-11-28T13:03:12;4.40;;;4.30;;
26820;SDS011;37186;51.394;5.454;2022-11-28T13:06:41;4.00;;;3.90;;
26820;SDS011;37186;51.394;5.454;2022-11-28T13:13:23;4.00;;;3.90;;
26820;SDS011;37186;51.394;5.454;2022-11-28T13:16:36;4.00;;;3.90;;
26820;SDS011;37186;51.394;5.454;2022-11-28T13:20:00;4.03;;;3.93;;
26820;SDS011;37186;51.394;5.454;2022-11-28T13:23:19;4.17;;;4.07;;
26820;SDS011;37186;51.394;5.454;2022-11-28T13:26:54;3.80;;;3.70;;
26820;SDS011;37186;51.394;5.454;2022-11-28T13:30:19;3.97;;;3.87;;
26820;SDS011;37186;51.394;5.454;2022-11-28T13:40:30;3.77;;;3.67;;
26820;SDS011;37186;51.394;5.454;2022-11-28T13:43:50;3.87;;;3.77;;
26820;SDS011;37186;51.394;5.454;2022-11-28T13:53:32;3.70;;;3.60;;
26820;SDS011;37186;51.394;5.454;2022-11-28T13:56:33;3.73;;;3.63;;
26820;SDS011;37186;51.394;5.454;2022-11-28T13:59:34;3.67;;;3.57;;
26820;SDS011;37186;51.394;5.454;2022-11-28T14:02:43;3.70;;;3.60;;
26820;SDS011;37186;51.394;5.454;2022-11-28T14:05:53;3.80;;;3.70;;
26820;SDS011;37186;51.394;5.454;2022-11-28T14:09:03;3.80;;;3.70;;
26820;SDS011;37186;51.394;5.454;2022-11-28T14:25:46;3.80;;;3.70;;
26820;SDS011;37186;51.394;5.454;2022-11-28T14:28:49;3.73;;;3.63;;
26820;SDS011;37186;51.394;5.454;2022-11-28T14:31:50;3.70;;;3.60;;
26820;SDS011;37186;51.394;5.454;2022-11-28T14:34:52;3.80;;;3.70;;
26820;SDS011;37186;51.394;5.454;2022-11-28T14:37:53;3.97;;;3.87;;
26820;SDS011;37186;51.394;5.454;2022-11-28T14:44:39;3.90;;;3.80;;
26820;SDS011;37186;51.394;5.454;2022-11-28T14:47:38;3.80;;;3.70;;
26820;SDS011;37186;51.394;5.454;2022-11-28T14:50:45;3.90;;;3.80;;
26820;SDS011;37186;51.394;5.454;2022-11-28T14:53:47;3.80;;;3.70;;
26820;SDS011;37186;51.394;5.454;2022-11-28T14:56:49;3.83;;;3.73;;
26820;SDS011;37186;51.394;5.454;2022-11-28T14:59:50;3.70;;;3.60;;
26820;SDS011;37186;51.394;5.454;2022-11-28T15:05:58;3.90;;;3.80;;
26820;SDS011;37186;51.394;5.454;2022-11-28T15:09:20;3.60;;;3.50;;
26820;SDS011;37186;51.394;5.454;2022-11-28T15:12:27;3.70;;;3.60;;
26820;SDS011;37186;51.394;5.454;2022-11-28T15:15:47;3.73;;;3.63;;
26820;SDS011;37186;51.394;5.454;2022-11-28T15:18:51;3.70;;;3.60;;
26820;SDS011;37186;51.394;5.454;2022-11-28T15:21:54;3.63;;;3.53;;
26820;SDS011;37186;51.394;5.454;2022-11-28T15:24:55;3.83;;;3.73;;
26820;SDS011;37186;51.394;5.454;2022-11-28T15:27:56;3.70;;;3.60;;
26820;SDS011;37186;51.394;5.454;2022-11-28T15:31:03;3.80;;;3.70;;
26820;SDS011;37186;51.394;5.454;2022-11-28T15:34:06;3.67;;;3.57;;
26820;SDS011;37186;51.394;5.454;2022-11-28T15:37:15;4.13;;;4.03;;
26820;SDS011;37186;51.394;5.454;2022-11-28T15:40:19;3.93;;;3.83;;
26820;SDS011;37186;51.394;5.454;2022-11-28T15:43:24;3.87;;;3.77;;
26820;SDS011;37186;51.394;5.454;2022-11-28T15:46:27;3.80;;;3.70;;
26820;SDS011;37186;51.394;5.454;2022-11-28T15:49:32;4.00;;;3.90;;
26820;SDS011;37186;51.394;5.454;2022-11-28T15:52:33;4.10;;;4.00;;
26820;SDS011;37186;51.394;5.454;2022-11-28T15:55:34;4.03;;;3.93;;
26820;SDS011;37186;51.394;5.454;2022-11-28T15:58:35;4.00;;;3.90;;
26820;SDS011;37186;51.394;5.454;2022-11-28T16:01:36;3.90;;;3.80;;
26820;SDS011;37186;51.394;5.454;2022-11-28T16:04:37;3.90;;;3.80;;
26820;SDS011;37186;51.394;5.454;2022-11-28T16:07:41;3.90;;;3.80;;
26820;SDS011;37186;51.394;5.454;2022-11-28T16:10:43;3.90;;;3.80;;
26820;SDS011;37186;51.394;5.454;2022-11-28T16:13:44;4.10;;;4.00;;
26820;SDS011;37186;51.394;5.454;2022-11-28T16:16:45;4.10;;;4.00;;
26820;SDS011;37186;51.394;5.454;2022-11-28T16:19:48;4.07;;;3.97;;
26820;SDS011;37186;51.394;5.454;2022-11-28T16:22:53;4.00;;;3.90;;
26820;SDS011;37186;51.394;5.454;2022-11-28T16:25:59;4.13;;;4.03;;
26820;SDS011;37186;51.394;5.454;2022-11-28T16:32:22;4.30;;;4.20;;
26820;SDS011;37186;51.394;5.454;2022-11-28T16:35:37;4.10;;;4.00;;
26820;SDS011;37186;51.394;5.454;2022-11-28T16:38:39;4.20;;;4.10;;
26820;SDS011;37186;51.394;5.454;2022-11-28T16:42:04;4.40;;;4.30;;
26820;SDS011;37186;51.394;5.454;2022-11-28T16:45:17;4.03;;;3.93;;
26820;SDS011;37186;51.394;5.454;2022-11-28T16:48:20;4.40;;;4.30;;
26820;SDS011;37186;51.394;5.454;2022-11-28T16:51:27;4.23;;;4.13;;
26820;SDS011;37186;51.394;5.454;2022-11-28T16:54:30;4.40;;;4.30;;
26820;SDS011;37186;51.394;5.454;2022-11-28T17:01:07;4.40;;;4.30;;
26820;SDS011;37186;51.394;5.454;2022-11-28T17:04:19;4.43;;;4.33;;
26820;SDS011;37186;51.394;5.454;2022-11-28T17:07:23;4.30;;;4.20;;
26820;SDS011;37186;51.394;5.454;2022-11-28T17:10:24;4.30;;;4.20;;
26820;SDS011;37186;51.394;5.454;2022-11-28T17:13:24;4.57;;;4.47;;
26820;SDS011;37186;51.394;5.454;2022-11-28T17:16:29;4.43;;;4.33;;
26820;SDS011;37186;51.394;5.454;2022-11-28T17:19:32;4.50;;;4.40;;
26820;SDS011;37186;51.394;5.454;2022-11-28T17:22:38;4.43;;;4.33;;
26820;SDS011;37186;51.394;5.454;2022-11-28T17:25:39;4.73;;;4.63;;
26820;SDS011;37186;51.394;5.454;2022-11-28T17:28:40;4.47;;;4.37;;
26820;SDS011;37186;51.394;5.454;2022-11-28T17:31:41;4.53;;;4.43;;
26820;SDS011;37186;51.394;5.454;2022-11-28T17:34:45;4.53;;;4.43;;
26820;SDS011;37186;51.394;5.454;2022-11-28T17:37:45;4.47;;;4.37;;
26820;SDS011;37186;51.394;5.454;2022-11-28T17:40:46;4.47;;;4.37;;
26820;SDS011;37186;51.394;5.454;2022-11-28T17:43:46;4.50;;;4.40;;
26820;SDS011;37186;51.394;5.454;2022-11-28T17:46:48;4.43;;;4.33;;
26820;SDS011;37186;51.394;5.454;2022-11-28T17:49:49;4.37;;;4.27;;
26820;SDS011;37186;51.394;5.454;2022-11-28T17:52:50;4.27;;;4.17;;
26820;SDS011;37186;51.394;5.454;2022-11-28T17:55:50;4.27;;;4.17;;
26820;SDS011;37186;51.394;5.454;2022-11-28T17:58:57;4.37;;;4.27;;
26820;SDS011;37186;51.394;5.454;2022-11-28T18:01:59;4.40;;;4.30;;
26820;SDS011;37186;51.394;5.454;2022-11-28T18:04:59;4.30;;;4.20;;
26820;SDS011;37186;51.394;5.454;2022-11-28T18:08:00;4.20;;;4.10;;
26820;SDS011;37186;51.394;5.454;2022-11-28T18:11:01;4.40;;;4.30;;
26820;SDS011;37186;51.394;5.454;2022-11-28T18:14:03;4.40;;;4.30;;
26820;SDS011;37186;51.394;5.454;2022-11-28T18:17:04;4.33;;;4.23;;
26820;SDS011;37186;51.394;5.454;2022-11-28T18:20:05;4.57;;;4.47;;
26820;SDS011;37186;51.394;5.454;2022-11-28T18:23:08;4.80;;;4.70;;
26820;SDS011;37186;51.394;5.454;2022-11-28T18:26:11;4.57;;;4.47;;
26820;SDS011;37186;51.394;5.454;2022-11-28T18:29:13;4.50;;;4.40;;
26820;SDS011;37186;51.394;5.454;2022-11-28T18:32:13;4.77;;;4.67;;
26820;SDS011;37186;51.394;5.454;2022-11-28T18:35:14;4.37;;;4.27;;
26820;SDS011;37186;51.394;5.454;2022-11-28T18:38:14;4.80;;;4.70;;
26820;SDS011;37186;51.394;5.454;2022-11-28T18:41:16;4.53;;;4.43;;
26820;SDS011;37186;51.394;5.454;2022-11-28T18:44:17;4.83;;;4.73;;
26820;SDS011;37186;51.394;5.454;2022-11-28T18:47:17;4.97;;;4.87;;
26820;SDS011;37186;51.394;5.454;2022-11-28T18:50:18;4.60;;;4.50;;
26820;SDS011;37186;51.394;5.454;2022-11-28T18:53:18;4.70;;;4.60;;
26820;SDS011;37186;51.394;5.454;2022-11-28T18:56:19;4.93;;;4.83;;
26820;SDS011;37186;51.394;5.454;2022-11-28T18:59:20;4.97;;;4.87;;
26820;SDS011;37186;51.394;5.454;2022-11-28T19:02:21;4.50;;;4.40;;
26820;SDS011;37186;51.394;5.454;2022-11-28T19:05:21;4.83;;;4.73;;
26820;SDS011;37186;51.394;5.454;2022-11-28T19:08:22;4.63;;;4.53;;
26820;SDS011;37186;51.394;5.454;2022-11-28T19:11:23;4.97;;;4.87;;
26820;SDS011;37186;51.394;5.454;2022-11-28T19:14:24;4.70;;;4.60;;
26820;SDS011;37186;51.394;5.454;2022-11-28T19:17:24;4.77;;;4.67;;
26820;SDS011;37186;51.394;5.454;2022-11-28T19:20:25;4.60;;;4.50;;
26820;SDS011;37186;51.394;5.454;2022-11-28T19:23:25;4.60;;;4.50;;
26820;SDS011;37186;51.394;5.454;2022-11-28T19:26:27;4.60;;;4.50;;
26820;SDS011;37186;51.394;5.454;2022-11-28T19:29:28;4.50;;;4.40;;
26820;SDS011;37186;51.394;5.454;2022-11-28T19:32:29;4.60;;;4.50;;
26820;SDS011;37186;51.394;5.454;2022-11-28T19:35:31;4.63;;;4.53;;
26820;SDS011;37186;51.394;5.454;2022-11-28T19:38:32;4.50;;;4.40;;
26820;SDS011;37186;51.394;5.454;2022-11-28T19:41:34;4.80;;;4.70;;
26820;SDS011;37186;51.394;5.454;2022-11-28T19:44:34;4.50;;;4.40;;
26820;SDS011;37186;51.394;5.454;2022-11-28T19:47:35;4.70;;;4.60;;
26820;SDS011;37186;51.394;5.454;2022-11-28T19:50:35;4.70;;;4.60;;
26820;SDS011;37186;51.394;5.454;2022-11-28T19:53:37;4.60;;;4.50;;
26820;SDS011;37186;51.394;5.454;2022-11-28T19:56:39;4.80;;;4.70;;
26820;SDS011;37186;51.394;5.454;2022-11-28T19:59:39;4.80;;;4.70;;
26820;SDS011;37186;51.394;5.454;2022-11-28T20:02:40;4.73;;;4.63;;
26820;SDS011;37186;51.394;5.454;2022-11-28T20:05:40;4.67;;;4.57;;
26820;SDS011;37186;51.394;5.454;2022-11-28T20:08:41;4.80;;;4.70;;
26820;SDS011;37186;51.394;5.454;2022-11-28T20:11:42;4.33;;;4.23;;
26820;SDS011;37186;51.394;5.454;2022-11-28T20:14:44;4.70;;;4.60;;
26820;SDS011;37186;51.394;5.454;2022-11-28T20:17:45;4.70;;;4.60;;
26820;SDS011;37186;51.394;5.454;2022-11-28T20:20:46;4.37;;;4.27;;
26820;SDS011;37186;51.394;5.454;2022-11-28T20:23:48;4.67;;;4.57;;
26820;SDS011;37186;51.394;5.454;2022-11-28T20:26:52;4.57;;;4.47;;
26820;SDS011;37186;51.394;5.454;2022-11-28T20:29:55;4.43;;;4.33;;
26820;SDS011;37186;51.394;5.454;2022-11-28T20:32:56;4.50;;;4.40;;
26820;SDS011;37186;51.394;5.454;2022-11-28T20:36:06;4.70;;;4.60;;
26820;SDS011;37186;51.394;5.454;2022-11-28T20:39:09;4.60;;;4.50;;
26820;SDS011;37186;51.394;5.454;2022-11-28T20:42:10;4.90;;;4.80;;
26820;SDS011;37186;51.394;5.454;2022-11-28T20:45:11;4.70;;;4.60;;
26820;SDS011;37186;51.394;5.454;2022-11-28T20:48:11;4.40;;;4.30;;
26820;SDS011;37186;51.394;5.454;2022-11-28T20:51:13;4.70;;;4.60;;
26820;SDS011;37186;51.394;5.454;2022-11-28T20:54:16;4.17;;;4.07;;